createdAt,value
2023-05-04T00:01:23.468Z,100281.38
2023-05-04T00:03:51.629Z,100276.00
2023-05-04T00:06:19.708Z,100277.84
2023-05-04T00:08:47.688Z,100281.38
2023-05-04T00:11:15.866Z,100279.72
2023-05-04T00:13:43.944Z,100280.53
2023-05-04T00:16:13.371Z,100272.69
2023-05-04T00:18:43.644Z,100276.44
2023-05-04T00:21:11.664Z,100274.75
2023-05-04T00:23:39.574Z,100274.75
2023-05-04T00:26:07.584Z,100274.75
2023-05-04T00:28:35.556Z,100273.09
2023-05-04T00:31:03.652Z,100267.91
2023-05-04T00:33:33.050Z,100277.88
2023-05-04T00:36:01.082Z,100271.66
2023-05-04T00:38:28.993Z,100274.38
2023-05-04T00:40:58.016Z,100270.84
2023-05-04T00:43:26.327Z,100271.88
2023-05-04T00:45:54.263Z,100278.94
2023-05-04T00:48:22.252Z,100266.03
2023-05-04T00:50:51.540Z,100276.81
2023-05-04T00:53:19.499Z,100276.81
2023-05-04T00:55:47.463Z,100272.28
2023-05-04T00:58:15.479Z,100274.13
2023-05-04T01:00:43.538Z,100275.81
2023-05-04T01:03:11.638Z,100271.03
2023-05-04T01:05:41.308Z,100280.97
2023-05-04T01:08:12.908Z,100277.25
2023-05-04T01:10:42.996Z,100277.25
2023-05-04T01:13:13.029Z,100277.00
2023-05-04T01:15:41.270Z,100269.97
2023-05-04T01:18:09.576Z,100266.47
2023-05-04T01:20:37.614Z,100266.47
2023-05-04T01:23:07.050Z,100272.69
2023-05-04T01:25:39.533Z,100259.38
2023-05-04T01:28:09.392Z,100261.88
2023-05-04T01:30:38.497Z,100261.88
2023-05-04T01:33:06.564Z,100262.72
2023-05-04T01:35:34.687Z,100260.84
2023-05-04T01:38:02.802Z,100261.88
2023-05-04T01:40:32.141Z,100264.59
2023-05-04T01:43:00.193Z,100257.75
2023-05-04T01:45:28.265Z,100257.53
2023-05-04T01:47:56.309Z,100263.75
2023-05-04T01:50:24.214Z,100265.63
2023-05-04T01:52:52.142Z,100254.00
2023-05-04T01:55:20.156Z,100260.25
2023-05-04T01:57:49.491Z,100263.75
2023-05-04T02:00:17.541Z,100262.94
2023-05-04T02:02:45.530Z,100267.28
2023-05-04T02:05:13.594Z,100266.47
2023-05-04T02:07:41.545Z,100264.59
2023-05-04T02:10:10.594Z,100248.41
2023-05-04T02:12:38.653Z,100260.63
2023-05-04T02:15:09.250Z,100262.72
2023-05-04T02:17:37.452Z,100265.19
2023-05-04T02:20:06.840Z,100263.31
2023-05-04T02:22:35.003Z,100274.94
2023-05-04T02:25:03.491Z,100268.50
2023-05-04T02:27:31.682Z,100275.56
2023-05-04T02:29:59.659Z,100280.13
2023-05-04T02:32:29.103Z,100281.97
2023-05-04T02:34:57.092Z,100286.34
2023-05-04T02:37:25.125Z,100286.34
2023-05-04T02:39:53.031Z,100297.16
2023-05-04T02:42:22.093Z,100288.81
2023-05-04T02:47:46.966Z,100302.94
2023-05-04T02:50:15.076Z,100297.53
2023-05-04T02:52:43.029Z,100298.34
2023-05-04T02:55:11.513Z,100296.50
2023-05-04T02:57:39.476Z,100292.13
2023-05-04T03:00:10.472Z,100298.34
2023-05-04T03:02:38.426Z,100298.34
2023-05-04T03:05:08.465Z,100295.44
2023-05-04T03:07:36.452Z,100299.78
2023-05-04T03:10:04.616Z,100301.66
2023-05-04T03:12:32.949Z,100297.94
2023-05-04T03:15:01.127Z,100296.28
2023-05-04T03:17:29.125Z,100303.34
2023-05-04T03:19:57.164Z,100297.94
2023-05-04T03:22:26.608Z,100305.19
2023-05-04T03:24:54.614Z,100303.34
2023-05-04T03:27:22.657Z,100302.28
2023-05-04T03:29:50.635Z,100310.38
2023-05-04T03:32:18.615Z,100302.50
2023-05-04T03:34:46.926Z,100311.63
2023-05-04T03:37:14.896Z,100303.75
2023-05-04T03:39:44.213Z,100305.63
2023-05-04T03:42:12.557Z,100293.38
2023-05-04T03:44:40.868Z,100302.53
2023-05-04T03:47:08.864Z,100311.66
2023-05-04T03:49:36.857Z,100316.22
2023-05-04T03:52:04.911Z,100314.16
2023-05-04T03:54:32.854Z,100315.78
2023-05-04T03:57:02.333Z,100321.19
2023-05-04T03:59:30.289Z,100320.16
2023-05-04T04:01:58.298Z,100318.28
2023-05-04T04:04:26.348Z,100322.88
2023-05-04T04:06:54.393Z,100325.34
2023-05-04T04:09:22.389Z,100327.00
2023-05-04T04:11:50.382Z,100324.31
2023-05-04T04:14:20.891Z,100332.41
2023-05-04T04:16:48.937Z,100332.41
2023-05-04T04:19:16.878Z,100333.22
2023-05-04T04:21:44.801Z,100331.34
2023-05-04T04:24:12.829Z,100335.72
2023-05-04T04:26:40.787Z,100324.94
2023-05-04T04:29:08.714Z,100336.53
2023-05-04T04:31:38.135Z,100328.44
2023-05-04T04:34:06.092Z,100321.19
2023-05-04T04:36:34.036Z,100331.97
2023-05-04T04:39:01.950Z,100335.28
2023-05-04T04:41:29.917Z,100335.28
2023-05-04T04:43:57.841Z,100339.63
2023-05-04T04:46:25.812Z,100340.47
2023-05-04T04:48:55.599Z,100342.34
2023-05-04T04:51:23.619Z,100336.94
2023-05-04T04:53:52.302Z,100338.59
2023-05-04T04:56:21.715Z,100343.97
2023-05-04T04:58:50.959Z,100351.06
2023-05-04T05:01:19.014Z,100350.00
2023-05-04T05:03:47.096Z,100341.91
2023-05-04T05:06:16.457Z,100350.63
2023-05-04T05:08:44.768Z,100350.63
2023-05-04T05:11:12.971Z,100362.03
2023-05-04T05:13:40.940Z,100365.56
2023-05-04T05:16:09.007Z,100363.69
2023-05-04T05:18:37.044Z,100369.31
2023-05-04T05:21:05.546Z,100363.28
2023-05-04T05:23:35.737Z,100366.81
2023-05-04T05:26:03.731Z,100370.34
2023-05-04T05:28:32.270Z,100372.22
2023-05-04T05:31:00.332Z,100373.03
2023-05-04T05:33:28.373Z,100370.56
2023-05-04T05:35:56.835Z,100375.97
2023-05-04T05:38:24.851Z,100370.97
2023-05-04T05:40:54.171Z,100370.97
2023-05-04T05:43:22.199Z,100377.41
2023-05-04T05:45:50.273Z,100380.09
2023-05-04T05:48:18.360Z,100372.00
2023-05-04T05:50:48.996Z,100377.41
2023-05-04T05:53:16.997Z,100381.16
2023-05-04T05:55:44.962Z,100388.44
2023-05-04T05:58:14.355Z,100387.59
2023-05-04T06:00:42.622Z,100387.59
2023-05-04T06:03:10.756Z,100385.13
2023-05-04T06:05:38.682Z,100392.38
2023-05-04T06:08:06.769Z,100392.59
2023-05-04T06:10:35.067Z,100395.09
2023-05-04T06:13:03.342Z,100401.31
2023-05-04T06:15:32.740Z,100399.44
2023-05-04T06:18:00.845Z,100404.81
2023-05-04T06:20:29.254Z,100404.63
2023-05-04T06:22:58.105Z,100403.78
2023-05-04T06:25:26.103Z,100404.41
2023-05-04T06:27:54.138Z,100408.16
2023-05-04T06:30:24.382Z,100417.06
2023-05-04T06:32:53.705Z,100416.25
2023-05-04T06:35:21.709Z,100417.88
2023-05-04T06:40:22.655Z,100421.00
2023-05-04T06:42:50.765Z,100424.75
2023-05-04T06:45:19.305Z,100423.72
2023-05-04T06:47:47.379Z,100424.53
2023-05-04T06:50:16.868Z,100433.25
2023-05-04T06:52:45.158Z,100434.91
2023-05-04T06:55:13.754Z,100430.31
2023-05-04T06:57:41.802Z,100446.50
2023-05-04T07:00:11.054Z,100443.00
2023-05-04T07:02:39.199Z,100434.69
2023-05-04T07:05:07.779Z,100444.44
2023-05-04T07:07:37.575Z,100437.41
2023-05-04T07:10:06.356Z,100449.00
2023-05-04T07:12:34.450Z,100444.44
2023-05-04T07:15:02.454Z,100447.97
2023-05-04T07:17:33.209Z,100452.34
2023-05-04T07:20:02.559Z,100453.78
2023-05-04T07:22:31.282Z,100451.91
2023-05-04T07:25:00.717Z,100454.63
2023-05-04T07:27:28.652Z,100461.06
2023-05-04T07:29:56.672Z,100466.22
2023-05-04T07:32:24.700Z,100461.88
2023-05-04T07:34:52.736Z,100469.16
2023-05-04T07:37:20.727Z,100466.47
2023-05-04T07:39:48.681Z,100480.16
2023-05-04T07:42:17.993Z,100480.97
2023-05-04T07:44:46.163Z,100479.94
2023-05-04T07:47:14.090Z,100481.78
2023-05-04T07:49:42.116Z,100482.66
2023-05-04T07:52:10.116Z,100488.88
2023-05-04T07:54:38.388Z,100490.75
2023-05-04T07:57:06.571Z,100493.44
2023-05-04T07:59:35.832Z,100499.66
2023-05-04T08:02:04.380Z,100502.38
2023-05-04T08:04:32.468Z,100501.31
2023-05-04T08:07:00.449Z,100501.31
2023-05-04T08:09:28.393Z,100503.81
2023-05-04T08:11:56.365Z,100505.47
2023-05-04T08:14:24.345Z,100504.44
2023-05-04T08:16:53.719Z,100502.56
2023-05-04T08:19:21.767Z,100512.13
2023-05-04T08:21:49.791Z,100499.63
2023-05-04T08:24:18.605Z,100508.56
2023-05-04T08:26:55.697Z,100516.47
2023-05-04T08:29:32.059Z,100514.59
2023-05-04T08:32:01.529Z,100517.09
2023-05-04T08:34:29.648Z,100516.25
2023-05-04T08:36:58.067Z,100514.16
2023-05-04T08:39:26.180Z,100512.91
2023-05-04T08:41:54.165Z,100508.38
2023-05-04T08:44:22.860Z,100510.00
2023-05-04T08:46:53.606Z,100517.69
2023-05-04T08:49:23.353Z,100517.47
2023-05-04T08:51:51.377Z,100514.59
2023-05-04T08:54:20.049Z,100512.50
2023-05-04T08:56:48.127Z,100510.44
2023-05-04T08:59:19.920Z,100515.59
2023-05-04T09:01:48.466Z,100522.47
2023-05-04T09:04:16.426Z,100520.38
2023-05-04T09:06:47.491Z,100517.25
2023-05-04T09:09:15.500Z,100518.94
2023-05-04T09:11:43.506Z,100523.28
2023-05-04T09:14:11.536Z,100523.91
2023-05-04T09:16:39.524Z,100512.88
2023-05-04T09:19:18.603Z,100516.19
2023-05-04T09:21:49.266Z,100518.69
2023-05-04T09:24:26.883Z,100517.63
2023-05-04T09:26:54.844Z,100509.53
2023-05-04T09:29:25.755Z,100512.88
2023-05-04T09:31:53.774Z,100506.41
2023-05-04T09:34:22.337Z,100510.78
2023-05-04T09:37:00.739Z,100500.59
2023-05-04T09:39:28.916Z,100504.94
2023-05-04T09:41:56.944Z,100504.94
2023-05-04T09:44:27.607Z,100510.13
2023-05-04T09:46:57.879Z,100504.72
2023-05-04T09:49:33.077Z,100505.34
2023-05-04T09:52:03.100Z,100503.47
2023-05-04T09:54:32.533Z,100508.66
2023-05-04T09:57:04.527Z,100496.81
2023-05-04T09:59:32.726Z,100494.97
2023-05-04T10:02:39.506Z,100493.69
2023-05-04T10:05:09.336Z,100497.22
2023-05-04T10:07:41.395Z,100500.75
2023-05-04T10:10:10.016Z,100503.25
2023-05-04T10:12:38.089Z,100492.44
2023-05-04T10:15:08.661Z,100487.63
2023-05-04T10:17:52.070Z,100483.09
2023-05-04T10:20:43.990Z,100475.81
2023-05-04T10:23:23.716Z,100482.84
2023-05-04T10:26:20.359Z,100479.94
2023-05-04T10:28:54.533Z,100471.84
2023-05-04T10:31:22.564Z,100477.84
2023-05-04T10:33:50.680Z,100473.28
2023-05-04T10:36:24.414Z,100470.56
2023-05-04T10:38:53.764Z,100481.38
2023-05-04T10:41:22.421Z,100478.69
2023-05-04T10:43:53.502Z,100475.38
2023-05-04T10:46:21.666Z,100472.66
2023-05-04T10:48:49.758Z,100471.59
2023-05-04T10:51:21.075Z,100458.53
2023-05-04T10:53:49.115Z,100457.72
2023-05-04T10:56:25.471Z,100461.22
2023-05-04T10:58:53.617Z,100457.91
2023-05-04T11:01:22.102Z,100457.09
2023-05-04T11:03:51.396Z,100459.78
2023-05-04T11:06:23.475Z,100466.25
2023-05-04T11:09:00.051Z,100456.47
2023-05-04T11:11:29.419Z,100466.69
2023-05-04T11:13:57.466Z,100458.78
2023-05-04T11:16:25.657Z,100462.53
2023-05-04T11:18:54.562Z,100460.88
2023-05-04T11:21:25.842Z,100461.91
2023-05-04T11:23:57.216Z,100451.13
2023-05-04T11:26:25.139Z,100460.88
2023-05-04T11:28:54.516Z,100468.16
2023-05-04T11:31:22.576Z,100457.34
2023-05-04T11:33:51.393Z,100467.94
2023-05-04T11:36:19.588Z,100465.25
2023-05-04T11:38:47.812Z,100472.28
2023-05-04T11:41:15.749Z,100457.97
2023-05-04T11:43:44.215Z,100462.53
2023-05-04T11:46:13.669Z,100460.03
2023-05-04T11:48:42.025Z,100458.16
2023-05-04T11:51:10.272Z,100455.47
2023-05-04T11:53:38.586Z,100453.59
2023-05-04T11:56:08.376Z,100442.56
2023-05-04T11:58:36.541Z,100449.63
2023-05-04T12:01:04.861Z,100442.56
2023-05-04T12:06:06.341Z,100442.56
2023-05-04T12:08:35.117Z,100440.94
2023-05-04T12:11:13.281Z,100440.94
2023-05-04T12:13:42.485Z,100446.34
2023-05-04T12:16:13.841Z,100435.72
2023-05-04T12:18:44.383Z,100436.56
2023-05-04T12:21:13.086Z,100440.31
2023-05-04T12:23:41.083Z,100437.59
2023-05-04T12:26:09.176Z,100431.16
2023-05-04T12:28:37.195Z,100421.41
2023-05-04T12:31:25.618Z,100422.22
2023-05-04T12:33:55.301Z,100423.06
2023-05-04T12:36:26.019Z,100413.91
2023-05-04T12:38:53.952Z,100417.66
2023-05-04T12:41:21.890Z,100417.66
2023-05-04T12:43:49.869Z,100411.41
2023-05-04T12:46:21.526Z,100408.72
2023-05-04T12:48:49.493Z,100412.25
2023-05-04T12:51:18.735Z,100419.31
2023-05-04T12:53:46.660Z,100412.25
2023-05-04T12:56:14.682Z,100411.41
2023-05-04T12:58:42.768Z,100412.47
2023-05-04T13:05:13.078Z,100407.28
2023-05-04T13:07:42.530Z,100415.38
2023-05-04T13:10:11.285Z,100412.69
2023-05-04T13:12:39.673Z,100401.88
2023-05-04T13:15:08.773Z,100406.47
2023-05-04T13:17:37.918Z,100411.03
2023-05-04T13:20:07.219Z,100403.13
2023-05-04T13:22:35.407Z,100397.72
2023-05-04T13:25:05.548Z,100398.56
2023-05-04T13:27:33.897Z,100396.91
2023-05-04T13:30:03.546Z,100403.97
2023-05-04T13:32:32.125Z,100398.56
2023-05-04T13:35:00.198Z,100400.44
2023-05-04T13:37:28.197Z,100394.22
2023-05-04T13:39:56.418Z,100390.25
2023-05-04T13:42:25.824Z,100385.88
2023-05-04T13:44:53.855Z,100390.25
2023-05-04T13:47:23.623Z,100382.16
2023-05-04T13:49:51.683Z,100391.06
2023-05-04T13:52:19.731Z,100386.28
2023-05-04T13:54:47.991Z,100378.38
2023-05-04T13:57:16.062Z,100379.22
2023-05-04T13:59:54.876Z,100383.59
2023-05-04T14:02:33.861Z,100376.50
2023-05-04T14:05:02.752Z,100379.22
2023-05-04T14:07:30.901Z,100387.31
2023-05-04T14:09:59.909Z,100375.69
2023-05-04T14:12:28.853Z,100385.66
2023-05-04T14:14:59.079Z,100375.69
2023-05-04T14:17:40.596Z,100376.50
2023-05-04T14:20:09.777Z,100377.56
2023-05-04T14:22:41.144Z,100376.75
2023-05-04T14:25:10.179Z,100380.28
2023-05-04T14:27:38.179Z,100375.69
2023-05-04T14:30:09.739Z,100365.72
2023-05-04T14:32:38.091Z,100369.25
2023-05-04T14:35:08.932Z,100365.72
2023-05-04T14:37:37.810Z,100372.78
2023-05-04T14:40:06.811Z,100367.38
2023-05-04T14:42:35.104Z,100365.50
2023-05-04T14:45:03.415Z,100357.41
2023-05-04T14:47:33.569Z,100359.28
2023-05-04T14:50:02.403Z,100363.41
2023-05-04T14:52:30.843Z,100358.03
2023-05-04T14:54:58.743Z,100362.34
2023-05-04T14:57:26.686Z,100359.47
2023-05-04T14:59:55.012Z,100356.75
2023-05-04T15:02:23.082Z,100357.38
2023-05-04T15:04:52.560Z,100359.00
2023-05-04T15:07:21.013Z,100355.50
2023-05-04T15:09:49.173Z,100355.69
2023-05-04T15:12:17.713Z,100354.25
2023-05-04T15:14:45.693Z,100349.69
2023-05-04T15:21:06.380Z,100343.69
2023-05-04T15:23:34.298Z,100340.53
2023-05-04T15:26:02.226Z,100339.91
2023-05-04T15:28:30.284Z,100343.19
2023-05-04T15:30:58.227Z,100344.84
2023-05-04T15:33:26.779Z,100341.47
2023-05-04T15:35:54.649Z,100345.84
2023-05-04T15:38:24.073Z,100335.66
2023-05-04T15:40:52.096Z,100336.47
2023-05-04T15:43:20.123Z,100338.94
2023-05-04T15:45:48.083Z,100336.25
2023-05-04T15:48:16.582Z,100340.63
2023-05-04T15:50:44.495Z,100342.25
2023-05-04T15:53:12.480Z,100335.22
2023-05-04T15:55:42.381Z,100333.53
2023-05-04T15:58:10.637Z,100337.31
2023-05-04T16:00:38.776Z,100338.94
2023-05-04T16:03:06.792Z,100326.50
2023-05-04T16:05:34.856Z,100330.25
2023-05-04T16:08:02.937Z,100324.84
2023-05-04T16:10:30.927Z,100334.00
2023-05-04T16:13:04.169Z,100328.59
2023-05-04T16:15:32.519Z,100326.13
2023-05-04T16:18:00.518Z,100326.31
2023-05-04T16:20:29.571Z,100326.31
2023-05-04T16:22:57.646Z,100330.09
2023-05-04T16:25:25.665Z,100327.59
2023-05-04T16:27:53.670Z,100333.19
2023-05-04T16:30:26.197Z,100331.56
2023-05-04T16:32:54.610Z,100329.91
2023-05-04T16:35:22.790Z,100337.19
2023-05-04T16:37:50.831Z,100339.03
2023-05-04T16:40:19.123Z,100342.81
2023-05-04T16:42:47.287Z,100341.16
2023-05-04T16:45:15.723Z,100341.97
2023-05-04T16:48:03.719Z,100341.16
2023-05-04T16:50:31.909Z,100344.69
2023-05-04T16:53:00.412Z,100346.56
2023-05-04T16:55:28.494Z,100344.69
2023-05-04T16:57:57.390Z,100357.38
2023-05-04T17:00:25.492Z,100352.16
2023-05-04T17:02:54.210Z,100360.28
2023-05-04T17:05:23.625Z,100354.06
2023-05-04T17:07:51.813Z,100367.75
2023-05-04T17:10:19.836Z,100367.75
2023-05-04T17:12:47.792Z,100373.41
2023-05-04T17:15:15.757Z,100379.81
2023-05-04T17:17:43.697Z,100386.28
2023-05-04T17:20:15.001Z,100391.69
2023-05-04T17:22:44.573Z,100382.97
2023-05-04T17:25:12.746Z,100395.66
2023-05-04T17:27:41.263Z,100387.75
2023-05-04T17:30:10.596Z,100393.16
2023-05-04T17:32:39.037Z,100395.84
2023-05-04T17:35:20.196Z,100399.63
2023-05-04T17:37:57.641Z,100393.59
2023-05-04T17:40:27.338Z,100404.41
2023-05-04T17:42:55.559Z,100413.56
2023-05-04T17:45:23.591Z,100408.16
2023-05-04T17:47:52.032Z,100408.34
2023-05-04T17:50:20.293Z,100411.88
2023-05-04T17:52:53.903Z,100416.47
2023-05-04T17:55:23.734Z,100421.03
2023-05-04T17:57:51.956Z,100422.69
2023-05-04T18:00:20.419Z,100418.34
2023-05-04T18:02:48.523Z,100426.44
2023-05-04T18:05:16.690Z,100421.03
2023-05-04T18:07:44.571Z,100429.13
2023-05-04T18:10:14.153Z,100423.94
2023-05-04T18:12:42.359Z,100431.22
2023-05-04T18:15:11.182Z,100433.09
2023-05-04T18:17:41.924Z,100428.94
2023-05-04T18:20:10.976Z,100434.34
2023-05-04T18:22:38.999Z,100438.09
2023-05-04T18:25:07.998Z,100443.50
2023-05-04T18:27:37.291Z,100447.22
2023-05-04T18:30:06.299Z,100455.34
2023-05-04T18:32:34.510Z,100461.78
2023-05-04T18:35:02.787Z,100464.50
2023-05-04T18:37:30.816Z,100466.38
2023-05-04T18:39:58.858Z,100476.31
2023-05-04T18:42:26.887Z,100468.22
2023-05-04T18:44:56.304Z,100480.06
2023-05-04T18:47:24.223Z,100477.59
2023-05-04T18:49:52.261Z,100483.00
2023-05-04T18:52:20.233Z,100491.31
2023-05-04T18:54:48.230Z,100494.00
2023-05-04T18:57:16.181Z,100491.31
2023-05-04T18:59:44.194Z,100496.69
2023-05-04T19:02:13.776Z,100498.59
2023-05-04T19:04:41.807Z,100496.69
2023-05-04T19:07:09.999Z,100502.94
2023-05-04T19:09:38.121Z,100498.34
2023-05-04T19:12:06.511Z,100509.38
2023-05-04T19:14:34.554Z,100503.97
2023-05-04T19:17:41.109Z,100508.56
2023-05-04T19:20:11.327Z,100505.84
2023-05-04T19:22:39.211Z,100504.19
2023-05-04T19:25:07.951Z,100509.59
2023-05-04T19:27:35.943Z,100514.59
2023-05-04T19:30:03.999Z,100509.38
2023-05-04T19:32:32.857Z,100505.03
2023-05-04T19:35:00.916Z,100512.31
2023-05-04T19:37:30.674Z,100515.84
2023-05-04T19:39:58.921Z,100509.38
2023-05-04T19:42:26.903Z,100510.44
2023-05-04T19:44:55.082Z,100511.47
2023-05-04T19:47:23.330Z,100504.22
2023-05-04T19:49:51.961Z,100505.03
2023-05-04T19:52:19.971Z,100509.63
2023-05-04T19:54:53.621Z,100511.47
2023-05-04T19:57:21.850Z,100500.88
2023-05-04T19:59:49.747Z,100498.19
2023-05-04T20:02:17.813Z,100507.13
2023-05-04T20:04:45.839Z,100511.88
2023-05-04T20:07:13.832Z,100512.72
2023-05-04T20:09:41.752Z,100520.81
2023-05-04T20:12:11.349Z,100511.88
2023-05-04T20:14:40.536Z,100520.59
2023-05-04T20:17:08.592Z,100526.00
2023-05-04T20:19:37.614Z,100525.19
2023-05-04T20:22:05.579Z,100517.28
2023-05-04T20:24:33.478Z,100514.59
2023-05-04T20:27:04.549Z,100519.97
2023-05-04T20:29:34.012Z,100522.69
2023-05-04T20:32:05.224Z,100526.41
2023-05-04T20:34:33.308Z,100518.50
2023-05-04T20:37:01.338Z,100517.69
2023-05-04T20:39:29.350Z,100516.22
2023-05-04T20:41:58.026Z,100519.97
2023-05-04T20:44:28.238Z,100521.63
2023-05-04T20:46:57.597Z,100515.59
2023-05-04T20:49:25.863Z,100517.47
2023-05-04T20:51:53.908Z,100515.84
2023-05-04T20:54:22.462Z,100508.75
2023-05-04T20:56:50.517Z,100515.22
2023-05-04T20:59:21.071Z,100508.16
2023-05-04T21:01:49.104Z,100511.69
2023-05-04T21:04:21.033Z,100508.16
2023-05-04T21:06:49.034Z,100510.00
2023-05-04T21:09:17.148Z,100499.22
2023-05-04T21:11:45.186Z,100503.78
2023-05-04T21:14:13.191Z,100506.50
2023-05-04T21:16:41.219Z,100495.06
2023-05-04T21:19:09.311Z,100498.63
2023-05-04T21:21:40.983Z,100495.06
2023-05-04T21:24:12.259Z,100498.00
2023-05-04T21:26:40.327Z,100497.16
2023-05-04T21:29:11.803Z,100496.34
2023-05-04T21:31:41.258Z,100502.56
2023-05-04T21:34:09.320Z,100504.44
2023-05-04T21:36:39.124Z,100500.06
2023-05-04T21:39:07.027Z,100494.91
2023-05-04T21:41:35.189Z,100499.25
2023-05-04T21:44:03.236Z,100497.59
2023-05-04T21:46:31.248Z,100503.00
2023-05-04T21:48:59.207Z,100495.09
2023-05-04T21:51:28.432Z,100495.09
2023-05-04T21:53:57.747Z,100498.63
2023-05-04T21:56:25.824Z,100501.94
2023-05-04T21:58:53.802Z,100503.00
2023-05-04T22:01:47.348Z,100500.06
2023-05-04T22:04:15.964Z,100511.69
2023-05-04T22:06:44.713Z,100503.59
2023-05-04T22:09:14.037Z,100506.28
2023-05-04T22:11:42.037Z,100505.47
2023-05-04T22:14:10.085Z,100508.97
2023-05-04T22:16:38.036Z,100505.47
2023-05-04T22:19:05.990Z,100504.63
2023-05-04T22:21:33.992Z,100504.63
2023-05-04T22:24:01.949Z,100503.81
2023-05-04T22:26:31.263Z,100497.59
2023-05-04T22:28:59.760Z,100503.00
2023-05-04T22:31:27.856Z,100507.34
2023-05-04T22:33:55.887Z,100506.50
2023-05-04T22:36:23.804Z,100501.31
2023-05-04T22:38:52.020Z,100496.34
2023-05-04T22:41:19.927Z,100497.41
2023-05-04T22:43:49.201Z,100495.72
2023-05-04T22:46:17.648Z,100487.63
2023-05-04T22:48:46.669Z,100485.97
2023-05-04T22:51:14.776Z,100479.53
2023-05-04T22:53:42.746Z,100478.91
2023-05-04T22:56:12.235Z,100478.91
2023-05-04T22:58:40.925Z,100478.06
2023-05-04T23:01:11.810Z,100474.56
2023-05-04T23:03:40.164Z,100472.69
2023-05-04T23:06:08.782Z,100460.25
2023-05-04T23:08:39.986Z,100465.63
2023-05-04T23:11:08.497Z,100468.53
2023-05-04T23:13:36.465Z,100462.31
2023-05-04T23:16:04.934Z,100463.13
2023-05-04T23:18:35.175Z,100460.44
2023-05-04T23:21:03.239Z,100462.94
2023-05-04T23:23:31.231Z,100466.47
2023-05-04T23:25:59.129Z,100460.25
2023-05-04T23:28:27.129Z,100471.03
2023-05-04T23:30:55.821Z,100462.13
2023-05-04T23:33:23.924Z,100454.03
2023-05-04T23:35:56.832Z,100449.44
2023-05-04T23:38:25.096Z,100456.09
2023-05-04T23:40:53.898Z,100449.88
2023-05-04T23:43:23.002Z,100448.00
2023-05-04T23:45:51.669Z,100449.03
2023-05-04T23:48:19.818Z,100440.31
2023-05-04T23:50:53.974Z,100444.03
2023-05-04T23:53:23.406Z,100449.44
2023-05-04T23:56:03.544Z,100447.78
2023-05-04T23:58:32.227Z,100437.00
